Terminal Aerodrome Forecast
Issued by NWS

Home | Current Version | Previous Version | Text Only | Print | Product List | Glossary On
Versions: 1 2 3 4 5 6 7 8 9 10 11 12 13 14 15 16 17 18 19 20 21 22 23 24 25 26 27 28 29 30 31
000
FTUS44 KHGX 270557 CCA
TAFLBX
TAF COR
KLBX 270557Z 2706/2806 17012KT P6SM VCSH FEW018 BKN026 OVC060
     FM271000 17010KT 2SM BR VCSH OVC007
     FM272000 23010KT 4SM -TSRA BR BKN015CB
     FM280000 34010KT P6SM VCTS BKN015CB
     FM280400 01014G22KT 6SM -SHRA BR BKN015=

USA.gov is the U.S. government's official web portal to all federal, state and local government web resources and services.